Time;durP1;ratioP1;P1;durP2;ratioP2;P2;SDS_P1;SDS_P2;PMS_P1;PMS_P2;Temp;Humidity;BMP_temperature;BMP_pressure;BME280_temperature;BME280_humidity;BME280_pressure;Samples;Min_cycle;Max_cycle;Signal;HPM_P1;HPM_P2
2022/12/28 00:00:50;;;;;;;8.30;5.57;;;;;;;-0.77;100.00;96559.56;5081567;28;24479;-76
2022/12/28 00:03:16;;;;;;;8.25;4.90;;;;;;;-0.76;100.00;96555.31;5087149;28;24430;-76
2022/12/28 00:05:43;;;;;;;10.43;7.50;;;;;;;-0.73;100.00;96556.16;5083879;28;24441;-77
2022/12/28 00:08:09;;;;;;;8.23;6.95;;;;;;;-0.73;100.00;96556.16;5083719;28;24430;-77
2022/12/28 00:10:36;;;;;;;10.57;7.25;;;;;;;-0.76;100.00;96553.63;5079174;28;24438;-76
2022/12/28 00:13:02;;;;;;;16.27;8.73;;;;;;;-0.80;100.00;96551.13;5082884;28;25034;-76
2022/12/28 00:15:30;;;;;;;8.52;5.25;;;;;;;-0.92;100.00;96549.50;5079515;28;24435;-76
2022/12/28 00:17:57;;;;;;;6.43;5.47;;;;;;;-0.82;100.00;96543.47;5089224;28;24810;-76
2022/12/28 00:20:23;;;;;;;7.72;4.03;;;;;;;-0.84;100.00;96545.19;5067245;28;24438;-76
2022/12/28 00:22:50;;;;;;;5.70;4.78;;;;;;;-0.89;100.00;96543.50;5084141;28;24434;-76
2022/12/28 00:25:16;;;;;;;4.50;3.45;;;;;;;-0.88;100.00;96543.53;5081596;28;24446;-75
2022/12/28 00:27:43;;;;;;;9.25;6.53;;;;;;;-0.97;100.00;96544.41;5086958;28;24460;-76
2022/12/28 00:30:11;;;;;;;8.25;4.78;;;;;;;-0.87;100.00;96546.91;5076603;28;24442;-76
2022/12/28 00:32:39;;;;;;;6.97;4.78;;;;;;;-0.67;100.00;96540.00;5080001;28;24454;-76
2022/12/28 00:35:06;;;;;;;5.15;3.83;;;;;;;-0.53;100.00;96532.28;5083180;28;24447;-76
2022/12/28 00:37:33;;;;;;;3.47;2.80;;;;;;;-0.47;100.00;96537.31;5078136;28;24442;-76
2022/12/28 00:39:59;;;;;;;6.15;3.28;;;;;;;-0.55;100.00;96534.00;5078510;28;25011;-76
2022/12/28 00:42:25;;;;;;;4.90;3.05;;;;;;;-0.44;100.00;96524.59;5079878;28;24453;-76
2022/12/28 00:44:52;;;;;;;5.00;3.20;;;;;;;-0.59;100.00;96519.63;5085491;28;24446;-76
2022/12/28 00:47:18;;;;;;;3.10;2.80;;;;;;;-0.50;100.00;96528.00;5086378;28;24437;-75
2022/12/28 00:49:46;;;;;;;4.55;2.80;;;;;;;-0.50;100.00;96517.81;5074387;28;24438;-75
2022/12/28 00:52:13;;;;;;;8.93;2.83;;;;;;;-0.44;100.00;96519.50;5079634;28;24451;-76
2022/12/28 00:54:39;;;;;;;5.10;2.92;;;;;;;-0.38;100.00;96510.94;5087968;28;24443;-76
2022/12/28 00:57:05;;;;;;;4.93;3.22;;;;;;;-0.41;100.00;96519.44;5085872;28;24438;-76
2022/12/28 00:59:32;;;;;;;4.93;3.03;;;;;;;-0.41;100.00;96506.72;5091860;28;24437;-76
2022/12/28 01:01:58;;;;;;;3.63;2.42;;;;;;;-0.39;100.00;96499.94;5075064;28;24423;-76
2022/12/28 01:04:25;;;;;;;3.72;2.60;;;;;;;-0.26;100.00;96495.56;5086977;28;24446;-76
2022/12/28 01:06:53;;;;;;;3.77;2.73;;;;;;;-0.32;100.00;96495.63;5076514;28;24478;-77
2022/12/28 01:09:19;;;;;;;4.55;2.65;;;;;;;-0.17;100.00;96498.03;5089154;28;24426;-76
2022/12/28 01:11:45;;;;;;;3.33;2.17;;;;;;;-0.12;100.00;96493.75;5079717;28;24466;-76
2022/12/28 01:14:12;;;;;;;5.65;2.60;;;;;;;-0.18;100.00;96491.28;5082218;28;24438;-76
2022/12/28 01:16:38;;;;;;;4.90;2.38;;;;;;;-0.23;100.00;96487.91;5084524;28;24430;-76
2022/12/28 01:19:06;;;;;;;3.53;2.20;;;;;;;-0.22;100.00;96487.06;5086175;28;24457;-76
2022/12/28 01:21:35;;;;;;;4.68;2.60;;;;;;;-0.25;100.00;96477.75;5086912;28;24440;-77
2022/12/28 01:24:06;;;;;;;3.30;2.25;;;;;;;-0.30;100.00;96482.06;5079057;28;24481;-76
2022/12/28 01:26:33;;;;;;;4.13;2.88;;;;;;;-0.35;100.00;96480.38;5068767;28;24802;-76
2022/12/28 01:29:00;;;;;;;5.57;2.73;;;;;;;-0.34;100.00;96488.00;5086561;28;24507;-76
2022/12/28 01:31:27;;;;;;;2.80;2.40;;;;;;;-0.41;100.00;96481.28;5081886;28;24439;-77
2022/12/28 01:33:54;;;;;;;3.40;2.50;;;;;;;-0.27;100.00;96471.81;5090221;28;24793;-77
2022/12/28 01:36:22;;;;;;;4.00;2.42;;;;;;;-0.25;100.00;96471.81;5089070;28;24437;-76
2022/12/28 01:38:52;;;;;;;2.92;2.20;;;;;;;-0.24;100.00;96473.50;5092355;28;24510;-77
2022/12/28 01:41:21;;;;;;;5.22;2.53;;;;;;;-0.14;100.00;96466.63;5080485;28;24427;-77
2022/12/28 01:44:31;;;;;;;4.10;2.75;;;;;;;-0.11;100.00;96453.84;5076289;28;24441;-77
2022/12/28 01:47:02;;;;;;;3.67;2.83;;;;;;;-0.15;100.00;96453.06;5072449;28;24441;-77
2022/12/28 01:49:32;;;;;;;2.97;2.50;;;;;;;-0.18;100.00;96449.69;5074248;28;24431;-76
2022/12/28 01:52:02;;;;;;;3.40;2.65;;;;;;;-0.31;100.00;96451.50;5084909;28;24696;-77
2022/12/28 01:54:33;;;;;;;3.88;2.95;;;;;;;-0.42;100.00;96443.13;5073491;28;25003;-77
2022/12/28 01:57:03;;;;;;;5.18;3.03;;;;;;;-0.43;100.00;96454.16;5084183;28;24796;-76
2022/12/28 01:59:33;;;;;;;5.93;3.10;;;;;;;-0.49;100.00;96437.25;5084254;28;24442;-76
2022/12/28 02:02:00;;;;;;;6.20;3.10;;;;;;;-0.44;100.00;96439.78;5082944;28;24425;-77
2022/12/28 02:04:27;;;;;;;4.15;3.28;;;;;;;-0.35;100.00;96444.75;5083429;28;24979;-77
2022/12/28 02:06:54;;;;;;;3.72;3.13;;;;;;;-0.23;100.00;96437.00;5075772;28;24434;-77
2022/12/28 02:09:26;;;;;;;4.43;3.35;;;;;;;-0.16;100.00;96435.25;5083012;28;24433;-76
2022/12/28 02:11:54;;;;;;;3.00;2.70;;;;;;;-0.06;100.00;96426.66;5085307;28;24450;-77
2022/12/28 02:14:22;;;;;;;3.67;3.00;;;;;;;-0.06;100.00;96437.69;5079064;28;24441;-77
2022/12/28 02:16:50;;;;;;;6.00;3.50;;;;;;;-0.07;100.00;96423.28;5074292;28;24453;-77
2022/12/28 02:19:21;;;;;;;4.38;2.80;;;;;;;0.10;100.00;96423.06;5082182;28;24487;-77
2022/12/28 02:22:12;;;;;;;4.15;3.15;;;;;;;0.20;100.00;96417.00;5087776;28;24437;-76
2022/12/28 02:24:57;;;;;;;3.45;2.45;;;;;;;0.17;100.00;96423.84;5086224;28;24434;-77
2022/12/28 02:27:34;;;;;;;3.30;2.80;;;;;;;0.23;100.00;96419.53;5087576;28;24488;-76
2022/12/28 02:30:06;;;;;;;4.00;3.13;;;;;;;0.31;100.00;96406.69;5087674;28;24800;-75
2022/12/28 02:32:45;;;;;;;4.28;2.80;;;;;;;0.35;100.00;96398.16;5084044;28;24504;-76
2022/12/28 02:35:18;;;;;;;3.47;2.60;;;;;;;0.31;100.00;96395.66;5078494;28;24450;-77
2022/12/28 02:37:47;;;;;;;3.50;2.50;;;;;;;0.36;100.00;96388.78;5087515;28;24430;-76
2022/12/28 02:40:18;;;;;;;3.85;2.65;;;;;;;0.39;100.00;96396.41;5062856;28;24443;-76
2022/12/28 02:42:46;;;;;;;2.97;2.53;;;;;;;0.40;100.00;96388.72;5085970;28;24437;-76
2022/12/28 02:51:04;;;;;;;3.13;2.20;;;;;;;0.55;100.00;96369.00;5102424;28;24491;-77
2022/12/28 02:53:45;;;;;;;3.45;2.30;;;;;;;0.61;100.00;96362.13;5117115;28;24449;-76
2022/12/28 02:56:27;;;;;;;4.03;2.38;;;;;;;0.45;100.00;96363.19;5105624;27;24438;-76
2022/12/28 02:59:28;;;;;;;3.28;2.10;;;;;;;0.35;100.00;96356.53;5102972;28;25088;-76
2022/12/28 03:02:11;;;;;;;3.15;2.50;;;;;;;0.36;100.00;96343.75;5107883;28;24807;-76
2022/12/28 03:04:55;;;;;;;2.85;2.15;;;;;;;0.42;100.00;96341.16;5107170;28;24442;-76
2022/12/28 03:10:17;;;;;;;3.58;2.10;;;;;;;0.31;100.00;96348.09;5111985;28;24432;-77
2022/12/28 03:12:50;;;;;;;3.25;2.20;;;;;;;0.32;100.00;96346.38;5115062;28;24426;-77
2022/12/28 03:15:28;;;;;;;4.65;2.20;;;;;;;0.35;100.00;96346.34;5108193;28;24476;-77
2022/12/28 03:31:46;;;;;;;4.45;2.40;;;;;;;0.20;100.00;96342.28;5115065;28;24433;-76
2022/12/28 03:34:13;;;;;;;3.58;2.25;;;;;;;0.17;100.00;96332.97;5112892;27;25005;-76
2022/12/28 03:36:54;;;;;;;2.70;2.20;;;;;;;0.30;100.00;96328.59;5113078;27;25011;-76
2022/12/28 03:39:32;;;;;;;2.80;2.08;;;;;;;0.41;100.00;96320.78;5102936;27;24782;-75
2022/12/28 03:44:55;;;;;;;2.40;1.85;;;;;;;0.45;100.00;96313.06;5109243;28;24445;-76
2022/12/28 03:47:26;;;;;;;2.90;2.03;;;;;;;0.45;100.00;96315.63;5119968;27;24461;-76
2022/12/28 03:49:52;;;;;;;6.63;2.00;;;;;;;0.40;100.00;96311.44;5131392;27;24432;-76
2022/12/28 03:52:20;;;;;;;3.15;1.95;;;;;;;0.44;100.00;96308.81;5133363;27;24437;-76
2022/12/28 03:54:47;;;;;;;1.88;1.50;;;;;;;0.45;100.00;96317.34;5123145;28;24437;-76
2022/12/28 03:57:15;;;;;;;3.00;1.60;;;;;;;0.48;100.00;96314.72;5121920;27;24434;-76
2022/12/28 03:59:42;;;;;;;2.58;1.67;;;;;;;0.43;100.00;96324.16;5119103;27;24493;-76
2022/12/28 04:02:08;;;;;;;2.65;1.88;;;;;;;0.46;100.00;96313.91;5116867;27;24442;-76
2022/12/28 04:04:35;;;;;;;2.13;1.65;;;;;;;0.52;100.00;96310.41;5119903;27;24449;-76
2022/12/28 04:07:01;;;;;;;2.58;1.75;;;;;;;0.58;100.00;96305.25;5115335;27;24448;-76
2022/12/28 04:09:31;;;;;;;2.30;1.63;;;;;;;0.57;100.00;96306.94;5104469;27;24434;-76
2022/12/28 04:11:57;;;;;;;3.40;1.65;;;;;;;0.63;100.00;96311.09;5118737;27;24437;-76
2022/12/28 04:14:24;;;;;;;2.33;1.50;;;;;;;0.57;100.00;96308.66;5111483;27;24991;-76
2022/12/28 04:16:50;;;;;;;2.15;1.83;;;;;;;0.62;100.00;96299.22;5107518;27;24429;-76
2022/12/28 04:19:17;;;;;;;3.15;1.83;;;;;;;0.72;100.00;96293.97;5101845;27;24433;-77
2022/12/28 04:21:44;;;;;;;2.55;1.70;;;;;;;0.77;100.00;96288.78;5124048;27;24969;-76
2022/12/28 04:24:10;;;;;;;2.75;2.03;;;;;;;0.78;100.00;96285.38;5113778;27;24453;-76
2022/12/28 04:26:38;;;;;;;2.67;1.50;;;;;;;0.80;100.00;96287.91;5113120;27;24485;-76
2022/12/28 04:29:04;;;;;;;2.80;1.50;;;;;;;0.71;100.00;96294.00;5099632;28;24441;-76
2022/12/28 04:31:31;;;;;;;1.98;1.58;;;;;;;0.67;100.00;96293.22;5119711;27;24436;-76
2022/12/28 04:33:58;;;;;;;2.78;2.05;;;;;;;0.63;100.00;96293.25;5119904;27;24441;-76
2022/12/28 04:36:25;;;;;;;2.38;1.58;;;;;;;0.69;100.00;96298.25;5111122;27;24441;-76
2022/12/28 04:38:52;;;;;;;2.53;1.80;;;;;;;0.72;100.00;96281.22;5114750;27;24433;-76
2022/12/28 04:41:18;;;;;;;2.20;1.60;;;;;;;0.78;100.00;96287.06;5111234;27;24437;-76
2022/12/28 04:43:46;;;;;;;3.58;1.33;;;;;;;0.82;100.00;96281.91;5127841;27;24799;-76
2022/12/28 04:46:15;;;;;;;2.60;1.60;;;;;;;0.88;100.00;96274.16;5114845;27;24801;-76
2022/12/28 04:48:42;;;;;;;1.60;1.38;;;;;;;0.86;100.00;96281.00;5113755;27;24445;-77
2022/12/28 04:51:10;;;;;;;3.20;1.55;;;;;;;0.83;100.00;96287.84;5119834;27;24437;-76
2022/12/28 04:53:37;;;;;;;2.25;1.40;;;;;;;0.84;100.00;96284.44;5127879;27;24437;-76
2022/12/28 04:56:04;;;;;;;2.03;1.42;;;;;;;0.85;100.00;96281.84;5109220;27;24530;-76
2022/12/28 04:58:31;;;;;;;1.40;1.00;;;;;;;0.95;100.00;96275.72;5126348;27;24940;-76
2022/12/28 05:01:04;;;;;;;1.30;1.00;;;;;;;1.00;100.00;96268.00;5100095;27;24450;-76
2022/12/28 05:03:30;;;;;;;3.00;1.13;;;;;;;1.05;100.00;96261.13;5125163;27;24795;-76
2022/12/28 05:06:00;;;;;;;1.00;0.80;;;;;;;1.15;100.00;96259.22;5117094;27;24444;-76
2022/12/28 05:08:26;;;;;;;1.98;0.85;;;;;;;1.20;100.00;96260.84;5121994;27;24461;-75
2022/12/28 05:10:53;;;;;;;1.50;0.95;;;;;;;1.20;100.00;96260.84;5119483;27;24441;-76
2022/12/28 05:13:19;;;;;;;1.38;1.00;;;;;;;1.29;100.00;96257.28;5124490;27;24425;-76
2022/12/28 05:15:46;;;;;;;2.67;0.93;;;;;;;1.31;100.00;96257.25;5114812;27;24447;-76
2022/12/28 05:18:14;;;;;;;2.42;0.90;;;;;;;1.34;100.00;96262.31;5110618;27;24469;-76
2022/12/28 05:20:40;;;;;;;6.25;0.98;;;;;;;1.33;100.00;96252.94;5109443;27;24441;-77
2022/12/28 05:23:06;;;;;;;2.90;0.82;;;;;;;1.37;100.00;96257.13;5095276;27;24433;-76
2022/12/28 05:25:33;;;;;;;1.77;1.02;;;;;;;1.35;100.00;96253.78;5099738;27;24446;-75
2022/12/28 05:27:59;;;;;;;1.85;0.80;;;;;;;1.34;100.00;96257.22;5114975;27;24448;-75
2022/12/28 05:30:26;;;;;;;5.10;1.10;;;;;;;1.33;100.00;96260.59;5119309;27;24444;-75
2022/12/28 05:32:52;;;;;;;3.22;0.90;;;;;;;1.31;100.00;96263.19;5111499;27;24434;-77
2022/12/28 05:35:20;;;;;;;2.70;1.08;;;;;;;1.35;100.00;96264.81;5110138;27;24434;-76
2022/12/28 05:37:46;;;;;;;1.50;0.90;;;;;;;1.37;100.00;96255.44;5107422;27;24486;-76
2022/12/28 05:40:13;;;;;;;5.10;0.80;;;;;;;1.37;100.00;96258.00;5116756;27;24438;-76
2022/12/28 05:42:39;;;;;;;1.85;0.95;;;;;;;1.43;100.00;96262.13;5121150;27;24437;-76
2022/12/28 05:45:07;;;;;;;1.95;0.82;;;;;;;1.40;100.00;96255.34;5125155;27;24440;-77
2022/12/28 05:47:33;;;;;;;1.75;1.15;;;;;;;1.38;100.00;96235.84;5112264;27;24817;-75
2022/12/28 05:50:00;;;;;;;1.30;0.80;;;;;;;1.46;100.00;96239.09;5116848;27;24440;-77
2022/12/28 05:52:29;;;;;;;2.42;1.20;;;;;;;1.48;100.00;96239.88;5099844;27;24438;-76
2022/12/28 05:54:55;;;;;;;2.33;0.95;;;;;;;1.52;100.00;96226.22;5112788;27;25014;-77
2022/12/28 05:57:21;;;;;;;1.27;0.75;;;;;;;1.65;100.00;96217.41;5116247;27;24440;-76
2022/12/28 05:59:48;;;;;;;1.77;0.90;;;;;;;1.77;100.00;96218.88;5098296;27;24674;-76
2022/12/28 06:02:14;;;;;;;1.70;0.70;;;;;;;1.79;100.00;96218.88;5109598;27;24440;-76
2022/12/28 06:04:41;;;;;;;2.30;0.60;;;;;;;1.80;100.00;96216.25;5112144;27;24448;-76
2022/12/28 06:07:07;;;;;;;1.38;0.77;;;;;;;1.88;100.00;96211.00;5104968;27;24452;-76
2022/12/28 06:09:35;;;;;;;2.33;0.63;;;;;;;1.94;100.00;96213.41;5098848;28;24476;-76
2022/12/28 06:12:03;;;;;;;1.60;0.63;;;;;;;1.98;100.00;96207.38;5101649;27;24468;-76
2022/12/28 06:14:30;;;;;;;1.08;0.50;;;;;;;2.01;100.00;96203.91;5102318;27;24542;-76
2022/12/28 06:16:56;;;;;;;2.67;0.85;;;;;;;2.09;100.00;96197.75;5101685;27;24438;-75
2022/12/28 06:19:23;;;;;;;4.05;1.38;;;;;;;2.08;100.00;96201.19;5119218;27;24436;-76
2022/12/28 06:21:49;;;;;;;7.95;4.90;;;;;;;2.08;100.00;96201.19;5127556;27;24437;-76
2022/12/28 06:24:17;;;;;;;5.00;0.90;;;;;;;2.20;100.00;96201.78;5108405;27;24785;-76
2022/12/28 06:26:45;;;;;;;4.45;1.30;;;;;;;2.17;100.00;96206.06;5114877;27;24436;-76
2022/12/28 06:29:12;;;;;;;2.72;1.00;;;;;;;2.23;100.00;96211.94;5103623;27;24442;-76
2022/12/28 06:31:41;;;;;;;3.30;0.90;;;;;;;2.17;100.00;96195.84;5127346;27;24823;-76
2022/12/28 06:34:08;;;;;;;5.82;0.95;;;;;;;2.29;100.00;96199.00;5101371;28;25006;-73
2022/12/28 06:36:37;;;;;;;3.80;0.90;;;;;;;2.37;100.00;96199.66;5112798;27;24445;-76
2022/12/28 06:39:06;;;;;;;2.75;0.75;;;;;;;2.29;100.00;96204.09;5105563;28;24812;-76
2022/12/28 06:41:33;;;;;;;2.67;0.90;;;;;;;2.26;100.00;96206.72;5107937;28;24437;-76
2022/12/28 06:44:01;;;;;;;2.25;1.05;;;;;;;2.16;100.00;96206.13;5106844;28;24434;-77
2022/12/28 06:46:30;;;;;;;1.80;1.05;;;;;;;2.15;100.00;96199.31;5113376;28;24543;-77
2022/12/28 06:48:57;;;;;;;2.08;1.05;;;;;;;2.16;100.00;96190.78;5104018;28;24464;-76
2022/12/28 06:51:25;;;;;;;1.95;0.90;;;;;;;2.18;100.00;96189.84;5100333;28;24445;-77
2022/12/28 06:53:53;;;;;;;2.05;0.80;;;;;;;2.30;100.00;96193.88;5115952;28;24803;-77
2022/12/28 06:56:22;;;;;;;2.10;0.73;;;;;;;2.27;100.00;96182.88;5115666;27;24429;-77
2022/12/28 06:58:50;;;;;;;1.37;0.77;;;;;;;2.24;100.00;96177.81;5106717;28;24437;-76
2022/12/28 07:01:20;;;;;;;6.93;1.25;;;;;;;2.31;100.00;96185.31;5107474;28;24434;-76
2022/12/28 07:03:49;;;;;;;4.45;1.15;;;;;;;2.37;100.00;96182.63;5109775;28;24815;-76
2022/12/28 07:06:17;;;;;;;2.97;1.10;;;;;;;2.31;100.00;96185.31;5121403;28;25242;-77
2022/12/28 07:08:45;;;;;;;2.35;0.90;;;;;;;2.52;100.00;96190.78;5114366;28;24456;-76
2022/12/28 07:11:14;;;;;;;2.60;0.85;;;;;;;2.47;100.00;96188.34;5105395;28;24446;-77
2022/12/28 07:13:41;;;;;;;3.88;0.80;;;;;;;2.47;100.00;96179.81;5118651;28;24898;-77
2022/12/28 07:16:11;;;;;;;1.85;0.73;;;;;;;2.35;100.00;96178.41;5116870;28;24460;-76
2022/12/28 07:18:40;;;;;;;2.03;0.90;;;;;;;2.36;100.00;96180.09;5115244;28;24418;-75
2022/12/28 07:21:09;;;;;;;4.95;0.93;;;;;;;2.38;100.00;96174.06;5111654;28;25061;-76
2022/12/28 07:23:35;;;;;;;2.15;0.93;;;;;;;2.43;100.00;96171.41;5116934;28;24438;-76
2022/12/28 07:26:06;;;;;;;3.10;1.15;;;;;;;2.48;100.00;96163.59;5117400;28;24440;-76
2022/12/28 07:28:32;;;;;;;4.70;1.25;;;;;;;2.46;100.00;96173.03;5113820;28;24457;-77
2022/12/28 07:30:59;;;;;;;3.20;0.90;;;;;;;2.41;100.00;96174.00;5121669;28;24430;-75
2022/12/28 07:33:25;;;;;;;1.95;1.00;;;;;;;2.38;100.00;96175.78;5109032;27;25291;-76
2022/12/28 07:35:53;;;;;;;4.45;1.25;;;;;;;2.35;100.00;96170.75;5113991;27;24989;-76
2022/12/28 07:38:20;;;;;;;6.32;1.20;;;;;;;2.29;100.00;96168.31;5108791;28;24422;-76
2022/12/28 07:40:46;;;;;;;2.00;1.00;;;;;;;2.36;100.00;96169.84;5110428;27;24434;-76
2022/12/28 07:43:13;;;;;;;4.10;1.20;;;;;;;2.31;100.00;96164.03;5120981;27;24440;-76
2022/12/28 07:45:39;;;;;;;4.03;1.30;;;;;;;2.24;100.00;96160.78;5114540;27;24990;-76
2022/12/28 07:48:06;;;;;;;5.78;1.63;;;;;;;2.10;100.00;96165.38;5108598;28;25009;-76
2022/12/28 07:50:32;;;;;;;3.05;1.50;;;;;;;2.00;100.00;96167.28;5114238;27;24437;-76
2022/12/28 07:53:01;;;;;;;3.60;1.92;;;;;;;1.91;100.00;96164.94;5127620;27;25002;-77
2022/12/28 07:55:30;;;;;;;3.72;2.10;;;;;;;1.82;100.00;96155.78;5122101;27;24441;-76
2022/12/28 07:57:57;;;;;;;2.70;1.60;;;;;;;1.81;100.00;96154.09;5125702;27;24537;-76
2022/12/28 08:00:23;;;;;;;2.60;1.50;;;;;;;1.78;100.00;96143.97;5112955;27;24441;-75
2022/12/28 08:02:50;;;;;;;1.73;1.45;;;;;;;1.87;100.00;96145.47;5122217;27;24441;-76
2022/12/28 08:05:16;;;;;;;2.45;1.55;;;;;;;1.80;100.00;96146.47;5115054;27;24801;-76
2022/12/28 08:07:43;;;;;;;4.35;2.47;;;;;;;1.75;100.00;96148.31;5113912;27;24449;-75
2022/12/28 08:10:10;;;;;;;2.80;1.38;;;;;;;1.76;100.00;96153.38;5115067;27;24460;-76
2022/12/28 08:12:37;;;;;;;3.30;1.83;;;;;;;1.70;100.00;96146.66;5124301;27;25383;-75
2022/12/28 08:15:04;;;;;;;4.03;1.30;;;;;;;1.69;100.00;96147.53;5113080;27;25008;-76
2022/12/28 08:17:31;;;;;;;2.67;1.55;;;;;;;1.62;100.00;96151.09;5121746;27;24883;-77
2022/12/28 08:19:57;;;;;;;3.00;1.55;;;;;;;1.65;100.00;96152.75;5120278;27;24452;-77
2022/12/28 08:22:24;;;;;;;3.90;1.70;;;;;;;1.66;100.00;96155.25;5123495;27;24513;-75
2022/12/28 08:24:51;;;;;;;6.00;1.80;;;;;;;1.64;100.00;96154.47;5103590;27;24526;-75
2022/12/28 08:27:19;;;;;;;3.20;1.65;;;;;;;1.66;100.00;96152.72;5119154;27;24437;-75
2022/12/28 08:29:45;;;;;;;3.33;1.57;;;;;;;1.71;100.00;96160.28;5117220;27;24426;-75
2022/12/28 08:32:12;;;;;;;5.93;2.78;;;;;;;1.76;100.00;96153.38;5109318;28;24855;-76
2022/12/28 08:34:38;;;;;;;6.80;2.38;;;;;;;1.81;100.00;96154.09;5121242;27;24449;-76
2022/12/28 08:37:05;;;;;;;8.02;4.57;;;;;;;1.85;100.00;96152.31;5120429;27;24433;-75
2022/12/28 08:39:31;;;;;;;3.42;2.17;;;;;;;1.89;100.00;96148.81;5124551;27;24440;-76
2022/12/28 08:41:58;;;;;;;4.03;2.38;;;;;;;1.93;100.00;96153.84;5120551;27;24444;-76
2022/12/28 08:44:26;;;;;;;2.08;1.83;;;;;;;2.03;100.00;96149.34;5121309;27;24437;-75
2022/12/28 08:46:54;;;;;;;2.75;1.70;;;;;;;2.09;100.00;96156.88;5111264;27;24799;-75
2022/12/28 08:49:20;;;;;;;2.85;1.95;;;;;;;2.16;100.00;96148.19;5117132;27;24449;-76
2022/12/28 08:51:47;;;;;;;2.15;1.30;;;;;;;2.25;100.00;96151.38;5117819;27;24433;-75
2022/12/28 08:54:14;;;;;;;2.95;1.92;;;;;;;2.29;100.00;96145.31;5118044;27;24775;-76
2022/12/28 08:56:42;;;;;;;3.20;1.80;;;;;;;2.34;100.00;96146.91;5115776;27;24529;-76
2022/12/28 08:59:12;;;;;;;2.30;1.58;;;;;;;2.35;100.00;96128.13;5111419;27;24437;-76
2022/12/28 09:01:40;;;;;;;3.30;1.75;;;;;;;2.37;100.00;96134.06;5101328;27;26144;-76
2022/12/28 09:04:08;;;;;;;2.03;1.65;;;;;;;2.36;100.00;96126.41;5122146;27;25021;-76
2022/12/28 09:06:38;;;;;;;3.57;1.80;;;;;;;2.48;100.00;96131.19;5118133;27;24438;-75
2022/12/28 09:09:05;;;;;;;2.85;1.80;;;;;;;2.51;100.00;96133.69;5115180;27;24893;-76
2022/12/28 09:11:33;;;;;;;4.70;1.90;;;;;;;2.47;100.00;96128.69;5119097;27;24429;-76
2022/12/28 09:13:59;;;;;;;4.23;1.77;;;;;;;2.41;100.00;96127.97;5117417;27;24843;-76
2022/12/28 09:16:28;;;;;;;3.13;2.00;;;;;;;2.42;100.00;96127.09;5121042;27;24438;-76
2022/12/28 09:18:57;;;;;;;3.05;1.67;;;;;;;2.43;100.00;96126.22;5122797;27;24441;-76
2022/12/28 09:21:26;;;;;;;2.27;1.70;;;;;;;2.61;100.00;96124.91;5116679;27;24994;-76
2022/12/28 09:23:55;;;;;;;3.17;1.50;;;;;;;2.62;100.00;96118.91;5121957;27;24445;-76
2022/12/28 09:26:23;;;;;;;2.03;1.55;;;;;;;2.60;100.00;96127.53;5121594;27;24441;-76
2022/12/28 09:28:51;;;;;;;1.85;1.40;;;;;;;2.61;100.00;96127.47;5109429;27;24445;-76
2022/12/28 09:31:20;;;;;;;2.53;1.45;;;;;;;2.61;100.00;96117.25;5109708;27;24426;-76
2022/12/28 09:33:59;;;;;;;1.87;1.50;;;;;;;2.73;100.00;96112.69;5112938;27;24795;-75
2022/12/28 09:36:28;;;;;;;1.73;1.45;;;;;;;2.74;100.00;96120.31;5121270;27;24988;-76
2022/12/28 09:38:55;;;;;;;3.13;1.75;;;;;;;2.79;100.00;96120.19;5109326;27;24436;-76
2022/12/28 09:41:26;;;;;;;2.72;1.48;;;;;;;2.85;100.00;96117.47;5126513;27;24429;-76
2022/12/28 09:44:01;;;;;;;4.72;1.83;;;;;;;2.93;100.00;96115.56;5104528;27;24882;-76
2022/12/28 09:46:31;;;;;;;2.22;1.52;;;;;;;2.98;100.00;96108.59;5106518;27;24426;-76
2022/12/28 09:49:00;;;;;;;2.88;1.95;;;;;;;3.04;100.00;96112.69;5112592;27;24450;-77
2022/12/28 09:51:35;;;;;;;2.85;1.48;;;;;;;3.15;100.00;96111.53;5106988;27;24445;-77
2022/12/28 09:54:03;;;;;;;3.08;1.60;;;;;;;3.27;100.00;96112.88;5112764;27;24472;-77
2022/12/28 09:56:35;;;;;;;3.08;1.75;;;;;;;3.35;100.00;96110.09;5110042;27;24444;-77
2022/12/28 09:59:03;;;;;;;3.78;1.50;;;;;;;3.43;100.00;96112.44;5107469;28;24437;-76
2022/12/28 10:01:30;;;;;;;3.47;2.00;;;;;;;3.48;100.00;96116.53;5123475;27;24428;-76
2022/12/28 10:04:00;;;;;;;3.20;1.80;;;;;;;3.66;100.00;96114.31;5118694;27;24445;-75
2022/12/28 10:06:34;;;;;;;3.58;2.00;;;;;;;3.75;100.00;96114.06;5118230;27;24791;-75
2022/12/28 10:09:02;;;;;;;4.05;3.28;;;;;;;3.80;100.00;96117.31;5113542;27;24446;-76
2022/12/28 10:11:32;;;;;;;2.50;1.60;;;;;;;4.00;100.00;96108.97;5116143;27;24436;-75
2022/12/28 10:14:02;;;;;;;1.80;1.30;;;;;;;4.16;100.00;96107.63;5101377;27;24434;-75
2022/12/28 10:16:31;;;;;;;3.00;1.60;;;;;;;4.33;100.00;96094.25;5119344;27;24461;-76
2022/12/28 10:18:59;;;;;;;2.58;1.80;;;;;;;4.30;100.00;96102.03;5099916;28;24430;-76
2022/12/28 10:21:30;;;;;;;3.92;2.15;;;;;;;4.23;100.00;96096.28;5118242;27;24938;-76
2022/12/28 10:23:57;;;;;;;3.42;1.52;;;;;;;4.29;100.00;96090.94;5110147;28;24490;-76
2022/12/28 10:26:24;;;;;;;3.30;1.70;;;;;;;4.33;100.00;96089.94;5120010;27;24429;-76
2022/12/28 10:28:52;;;;;;;2.50;1.53;;;;;;;4.32;100.00;96083.16;5113941;27;24544;-76
2022/12/28 10:31:32;;;;;;;2.70;1.65;;;;;;;4.28;100.00;96084.16;5121819;27;24452;-76
2022/12/28 10:33:58;;;;;;;2.45;1.50;;;;;;;4.45;100.00;96083.59;5114425;27;24510;-76
2022/12/28 10:36:25;;;;;;;2.47;1.10;;;;;;;4.44;100.00;96073.38;5109146;27;24456;-76
2022/12/28 10:38:55;;;;;;;3.90;1.40;;;;;;;4.31;100.00;96073.78;5119399;27;24437;-75
2022/12/28 10:41:33;;;;;;;4.38;1.63;;;;;;;4.27;100.00;96076.50;5122513;27;24894;-76
2022/12/28 10:44:12;;;;;;;2.22;1.33;;;;;;;4.20;100.00;96081.00;5115862;27;24444;-76
2022/12/28 10:46:49;;;;;;;2.95;1.77;;;;;;;4.24;100.00;96074.88;5107348;27;24441;-76
2022/12/28 10:49:15;;;;;;;3.97;2.20;;;;;;;4.39;100.00;96073.53;5124247;28;24444;-76
2022/12/28 10:52:01;;;;;;;2.88;1.63;;;;;;;4.44;100.00;96065.69;5106768;28;24993;-77
2022/12/28 10:54:32;;;;;;;2.17;1.50;;;;;;;4.59;100.00;96060.84;5116850;28;24464;-77
2022/12/28 10:56:58;;;;;;;3.25;1.42;;;;;;;4.61;100.00;96058.25;5120305;28;24433;-76
2022/12/28 10:59:27;;;;;;;2.92;1.40;;;;;;;4.70;100.00;96055.34;5123431;28;24425;-77
2022/12/28 11:01:55;;;;;;;2.88;1.83;;;;;;;4.68;100.00;96056.31;5112294;28;24526;-76
2022/12/28 11:04:24;;;;;;;3.80;1.45;;;;;;;4.67;100.00;96054.63;5119337;28;24437;-76
2022/12/28 11:06:53;;;;;;;6.22;2.00;;;;;;;4.71;100.00;96045.91;5118098;28;24436;-77
2022/12/28 11:09:22;;;;;;;1.60;1.00;;;;;;;4.77;100.00;96041.41;5125541;27;24535;-77
2022/12/28 11:11:52;;;;;;;3.20;1.40;;;;;;;4.71;100.00;96045.91;5111256;27;24437;-77
2022/12/28 11:14:29;;;;;;;1.77;1.40;;;;;;;4.65;100.00;96038.47;5126009;27;24433;-77
2022/12/28 11:16:55;;;;;;;3.57;1.87;;;;;;;4.70;100.00;96034.00;5111532;27;24429;-77
2022/12/28 11:19:24;;;;;;;2.40;1.60;;;;;;;4.69;100.00;96022.91;5108201;28;24433;-77
2022/12/28 11:21:51;;;;;;;4.27;2.27;;;;;;;4.71;100.00;96025.41;5120151;27;24486;-77
2022/12/28 11:24:19;;;;;;;7.53;3.17;;;;;;;4.74;100.00;96015.88;5125108;27;24444;-77
2022/12/28 11:26:49;;;;;;;4.93;3.30;;;;;;;4.78;100.00;96011.47;5105538;27;24464;-77
2022/12/28 11:29:18;;;;;;;6.03;2.60;;;;;;;4.79;100.00;96016.56;5119837;27;24452;-77
2022/12/28 11:31:49;;;;;;;7.68;2.95;;;;;;;4.85;100.00;96005.22;5119076;27;24441;-77
2022/12/28 11:34:20;;;;;;;3.28;2.50;;;;;;;4.97;100.00;96009.91;5119539;27;24803;-78
2022/12/28 11:36:47;;;;;;;3.90;2.38;;;;;;;5.13;100.00;95999.06;5125306;27;24444;-77
2022/12/28 11:39:43;;;;;;;5.80;2.03;;;;;;;5.28;100.00;96001.06;5115307;27;24511;-76
2022/12/28 11:42:10;;;;;;;6.53;4.72;;;;;;;5.31;100.00;96000.94;5115593;27;24482;-76
2022/12/28 11:44:52;;;;;;;2.95;2.20;;;;;;;5.33;100.00;95996.56;5117955;27;24441;-76
2022/12/28 11:47:31;;;;;;;2.58;1.80;;;;;;;5.38;100.00;95993.81;5114481;27;24438;-73
2022/12/28 11:50:41;;;;;;;4.03;2.47;;;;;;;5.29;100.00;95985.56;5108606;27;24493;-76
2022/12/28 11:53:23;;;;;;;4.72;2.05;;;;;;;5.36;100.00;95978.47;5111484;27;24433;-76
2022/12/28 11:56:01;;;;;;;2.42;1.67;;;;;;;5.37;100.00;95982.72;5107529;27;24440;-76
2022/12/28 11:59:02;;;;;;;3.33;1.80;;;;;;;5.55;100.00;95984.56;5119022;27;24426;-76
2022/12/28 12:01:53;;;;;;;3.75;2.40;;;;;;;5.57;100.00;95982.78;5109400;27;25081;-75
2022/12/28 12:04:31;;;;;;;1.63;1.10;;;;;;;5.54;100.00;95977.75;5119336;27;24445;-76
2022/12/28 12:07:24;;;;;;;2.45;1.40;;;;;;;5.53;100.00;95965.81;5123314;27;24432;-76